createdAt,value
2022-12-01T00:05:33.601Z,101904.60
2022-12-01T00:20:36.789Z,101901.09
2022-12-01T00:35:42.000Z,101903.36
2022-12-01T00:50:46.025Z,101908.57
2022-12-01T01:05:49.402Z,101904.30
2022-12-01T01:21:04.548Z,101895.70
2022-12-01T01:36:07.977Z,101884.78
2022-12-01T01:51:13.443Z,101878.89
2022-12-01T02:06:16.943Z,101875.94
2022-12-01T02:21:29.073Z,101878.52
2022-12-01T02:36:37.450Z,101880.13
2022-12-01T02:51:45.144Z,101880.21
2022-12-01T03:07:20.300Z,101877.56
2022-12-01T03:22:26.805Z,101877.33
2022-12-01T03:37:36.930Z,101879.65
2022-12-01T03:53:04.764Z,101885.46
2022-12-01T04:08:08.217Z,101888.02
2022-12-01T04:23:11.412Z,101883.06
2022-12-01T04:38:14.667Z,101879.57
2022-12-01T04:53:18.214Z,101869.73
2022-12-01T05:08:21.493Z,101877.36
2022-12-01T05:23:29.658Z,101876.30
2022-12-01T05:38:32.788Z,101882.56
2022-12-01T05:53:36.563Z,101888.15
2022-12-01T06:08:39.839Z,101890.06
2022-12-01T06:23:43.078Z,101895.77
2022-12-01T06:38:46.250Z,101903.08
2022-12-01T06:53:59.746Z,101910.33
2022-12-01T07:09:07.352Z,101913.41
2022-12-01T07:24:12.967Z,101909.91
2022-12-01T07:39:17.454Z,101914.28
2022-12-01T07:54:21.526Z,101911.99
2022-12-01T08:09:24.733Z,101904.71
2022-12-01T08:24:27.953Z,101902.27
2022-12-01T08:39:31.667Z,101905.03
2022-12-01T08:54:35.157Z,101909.05
2022-12-01T09:09:38.650Z,101913.11
2022-12-01T09:24:42.466Z,101908.66
2022-12-01T09:39:46.336Z,101895.10
2022-12-01T09:54:49.982Z,101886.79
2022-12-01T10:09:59.833Z,101877.07
2022-12-01T10:25:19.284Z,101875.23
2022-12-01T10:40:23.559Z,101877.79
2022-12-01T10:55:33.283Z,101873.67
2022-12-01T11:10:38.399Z,101877.70
2022-12-01T11:25:42.117Z,101875.30
2022-12-01T11:40:50.786Z,101863.33
2022-12-01T11:56:15.364Z,101855.30
2022-12-01T12:11:32.292Z,101846.55
2022-12-01T12:27:11.838Z,101835.80
2022-12-01T12:42:39.432Z,101827.41
2022-12-01T12:57:50.320Z,101820.73
2022-12-01T13:13:07.131Z,101808.23
2022-12-01T13:28:20.948Z,101803.55
2022-12-01T13:43:24.341Z,101806.25
2022-12-01T13:58:34.149Z,101804.63
2022-12-01T14:13:50.847Z,101804.12
2022-12-01T14:29:03.570Z,101798.90
2022-12-01T14:44:14.450Z,101795.42
2022-12-01T14:59:24.774Z,101784.64
2022-12-01T15:14:28.469Z,101784.30
2022-12-01T15:29:37.470Z,101775.39
2022-12-01T15:44:41.120Z,101774.91
2022-12-01T15:59:47.058Z,101769.09
2022-12-01T16:15:13.387Z,101771.32
2022-12-01T16:30:22.824Z,101778.16
2022-12-01T16:45:27.051Z,101783.27
2022-12-01T17:00:30.896Z,101774.26
2022-12-01T17:15:34.994Z,101764.89
2022-12-01T17:30:39.476Z,101762.37
2022-12-01T17:45:43.373Z,101761.22
2022-12-01T18:00:49.417Z,101769.78
2022-12-01T18:15:52.973Z,101768.23
2022-12-01T18:30:56.493Z,101762.88
2022-12-01T18:46:06.348Z,101768.66
2022-12-01T19:01:21.375Z,101770.78
2022-12-01T19:16:25.008Z,101767.51
2022-12-01T19:31:29.484Z,101763.85
2022-12-01T19:46:33.758Z,101763.59
2022-12-01T20:01:38.004Z,101760.21
2022-12-01T20:16:41.728Z,101765.11
2022-12-01T20:31:46.086Z,101774.39
2022-12-01T20:46:49.393Z,101781.26
2022-12-01T21:01:53.376Z,101782.17
2022-12-01T21:17:02.685Z,101787.46
2022-12-01T21:32:14.248Z,101790.14
2022-12-01T21:47:27.465Z,101791.54
2022-12-01T22:02:51.811Z,101793.76
2022-12-01T22:17:57.065Z,101794.39
2022-12-01T22:33:10.999Z,101789.02
2022-12-01T22:48:39.095Z,101780.33
2022-12-01T23:03:42.274Z,101758.61
2022-12-01T23:18:45.876Z,101753.34
2022-12-01T23:33:49.276Z,101744.33
2022-12-01T23:48:58.487Z,101745.43
